createdAt,value
2023-03-22T00:00:30.214Z,80.17
2023-03-22T00:05:58.638Z,80.24
2023-03-22T00:11:03.035Z,80.60
2023-03-22T00:16:07.168Z,80.78
2023-03-22T00:21:16.158Z,80.72
2023-03-22T00:26:19.249Z,80.94
2023-03-22T00:31:22.364Z,81.10
2023-03-22T00:36:26.350Z,81.26
2023-03-22T00:41:29.464Z,81.42
2023-03-22T00:46:32.553Z,81.48
2023-03-22T00:51:35.791Z,81.76
2023-03-22T00:56:38.814Z,81.82
2023-03-22T01:01:41.883Z,82.03
2023-03-22T01:06:45.095Z,82.40
2023-03-22T01:11:48.194Z,82.43
2023-03-22T01:16:51.877Z,82.35
2023-03-22T01:21:55.736Z,82.54
2023-03-22T01:26:58.855Z,82.75
2023-03-22T01:32:02.153Z,82.62
2023-03-22T01:37:05.370Z,82.68
2023-03-22T01:42:14.504Z,82.67
2023-03-22T01:47:17.620Z,82.56
2023-03-22T01:52:20.829Z,82.57
2023-03-22T01:57:24.826Z,82.82
2023-03-22T02:02:31.174Z,82.89
2023-03-22T02:07:34.457Z,83.19
2023-03-22T02:13:27.634Z,83.36
2023-03-22T02:19:21.018Z,83.43
2023-03-22T02:24:30.071Z,83.08
2023-03-22T02:29:48.837Z,83.24
2023-03-22T02:35:13.544Z,83.13
2023-03-22T02:41:01.301Z,83.33
2023-03-22T02:46:23.587Z,83.44
2023-03-22T02:51:46.115Z,83.29
2023-03-22T02:57:00.699Z,83.77
2023-03-22T03:02:05.880Z,83.61
2023-03-22T03:07:14.555Z,83.44
2023-03-22T03:12:25.313Z,83.11
2023-03-22T03:18:05.235Z,82.75
2023-03-22T03:23:28.846Z,82.99
2023-03-22T03:29:06.354Z,83.40
2023-03-22T03:34:27.827Z,83.46
2023-03-22T03:39:37.335Z,83.59
2023-03-22T03:44:41.707Z,83.81
2023-03-22T03:49:44.811Z,83.75
2023-03-22T03:54:48.015Z,84.18
2023-03-22T03:59:51.091Z,84.38
2023-03-22T04:04:54.092Z,84.44
2023-03-22T04:09:57.226Z,84.46
2023-03-22T04:15:00.680Z,84.21
2023-03-22T04:20:06.356Z,84.37
2023-03-22T04:25:13.350Z,84.85
2023-03-22T04:30:19.252Z,85.07
2023-03-22T04:35:23.308Z,85.29
2023-03-22T04:40:27.238Z,85.31
2023-03-22T04:45:32.622Z,85.23
2023-03-22T04:50:35.689Z,85.22
2023-03-22T04:55:39.104Z,84.90
2023-03-22T05:00:42.514Z,84.76
2023-03-22T05:05:57.089Z,84.68
2023-03-22T05:11:08.390Z,84.71
2023-03-22T05:16:12.451Z,84.77
2023-03-22T05:21:22.248Z,84.83
2023-03-22T05:26:27.248Z,84.84
2023-03-22T05:31:30.874Z,84.84
2023-03-22T05:36:36.725Z,84.60
2023-03-22T05:41:39.809Z,84.44
2023-03-22T05:46:42.888Z,84.13
2023-03-22T05:51:46.133Z,83.98
2023-03-22T05:56:49.441Z,83.77
2023-03-22T06:01:52.629Z,83.70
2023-03-22T06:06:56.706Z,83.86
2023-03-22T06:11:59.884Z,83.86
2023-03-22T06:17:03.762Z,83.68
2023-03-22T06:22:06.820Z,83.67
2023-03-22T06:27:10.863Z,83.57
2023-03-22T06:32:13.954Z,83.63
2023-03-22T06:37:17.255Z,83.81
2023-03-22T06:42:20.574Z,83.71
2023-03-22T06:47:25.020Z,83.90
2023-03-22T06:52:28.102Z,84.06
2023-03-22T06:57:31.426Z,84.16
2023-03-22T07:02:34.531Z,84.25
2023-03-22T07:07:38.053Z,84.15
2023-03-22T07:12:41.873Z,84.17
2023-03-22T07:17:45.410Z,84.39
2023-03-22T07:22:51.412Z,84.47
2023-03-22T07:27:54.497Z,84.36
2023-03-22T07:32:57.566Z,84.36
2023-03-22T07:38:01.420Z,84.72
2023-03-22T07:43:04.500Z,85.14
2023-03-22T07:48:11.532Z,85.18
2023-03-22T07:53:15.124Z,85.21
2023-03-22T07:58:18.337Z,85.13
2023-03-22T08:03:22.491Z,85.15
2023-03-22T08:08:26.708Z,85.32
2023-03-22T08:13:30.511Z,85.25
2023-03-22T08:18:33.720Z,84.96
2023-03-22T08:23:41.824Z,85.18
2023-03-22T08:28:45.773Z,85.54
2023-03-22T08:33:49.512Z,85.97
2023-03-22T08:38:53.331Z,86.18
2023-03-22T08:43:56.663Z,85.89
2023-03-22T08:49:01.395Z,85.90
2023-03-22T08:54:05.604Z,85.79
2023-03-22T08:59:10.471Z,85.79
2023-03-22T09:04:14.272Z,85.64
2023-03-22T09:09:17.689Z,86.04
2023-03-22T09:14:21.000Z,86.03
2023-03-22T09:19:24.201Z,86.29
2023-03-22T09:24:27.308Z,86.15
2023-03-22T09:29:31.412Z,86.18
2023-03-22T09:34:34.685Z,86.27
2023-03-22T09:39:38.692Z,86.18
2023-03-22T09:44:46.287Z,86.15
2023-03-22T09:50:01.702Z,85.86
2023-03-22T09:55:20.892Z,85.99
2023-03-22T10:00:53.777Z,85.97
2023-03-22T10:06:29.397Z,85.93
2023-03-22T10:11:46.215Z,85.88
2023-03-22T10:16:56.445Z,85.76
2023-03-22T10:22:04.122Z,85.60
2023-03-22T10:27:20.932Z,85.53
2023-03-22T10:32:56.490Z,85.38
2023-03-22T10:38:07.402Z,85.55
2023-03-22T10:43:33.398Z,85.61
2023-03-22T10:48:47.915Z,85.50
2023-03-22T10:53:55.268Z,85.46
2023-03-22T10:58:58.694Z,85.33
2023-03-22T11:04:17.492Z,85.37
2023-03-22T11:09:24.558Z,85.28
2023-03-22T11:14:36.903Z,85.46
2023-03-22T11:19:52.074Z,85.55
2023-03-22T11:24:57.166Z,85.75
2023-03-22T11:30:23.923Z,85.77
2023-03-22T11:35:29.770Z,85.44
2023-03-22T11:40:37.062Z,85.44
2023-03-22T11:45:44.398Z,85.50
2023-03-22T11:50:49.073Z,85.56
2023-03-22T11:55:57.373Z,85.71
2023-03-22T12:01:04.072Z,85.82
2023-03-22T12:06:26.692Z,86.12
2023-03-22T12:11:39.000Z,85.88
2023-03-22T12:16:56.445Z,85.65
2023-03-22T12:22:00.381Z,85.34
2023-03-22T12:27:27.383Z,85.17
2023-03-22T12:32:38.756Z,85.01
2023-03-22T12:37:48.176Z,84.90
2023-03-22T12:43:24.100Z,84.81
2023-03-22T12:48:33.570Z,84.67
2023-03-22T12:53:52.567Z,84.42
2023-03-22T12:59:03.704Z,84.32
2023-03-22T13:04:26.057Z,84.08
2023-03-22T13:09:50.465Z,84.07
2023-03-22T13:15:13.878Z,83.86
2023-03-22T13:20:20.328Z,83.60
2023-03-22T13:25:39.800Z,83.49
2023-03-22T13:30:59.019Z,83.52
2023-03-22T13:36:32.212Z,83.85
2023-03-22T13:41:36.766Z,84.49
2023-03-22T13:46:39.941Z,84.73
2023-03-22T13:51:44.951Z,84.62
2023-03-22T13:56:56.756Z,84.49
2023-03-22T14:02:22.491Z,84.35
2023-03-22T14:07:40.399Z,84.23
2023-03-22T14:13:25.733Z,84.01
2023-03-22T14:18:32.810Z,83.32
